Weersoverzicht van METAR-stations binnen 150 km

EHRD - Rotterdam Airport
Afstand tot weerstation: ZO 28 km
Update: 26-05-2020 01:25
Mist, Gedeeltelijk bewolkt
Mist, Gedeeltelijk bewolkt
 Wind van WNW
Wind: WNW 4 km/h
Temperatuur: 9°C
Dauwpunt: 9°C
Luchtvochtigheid: 100%
Luchtdruk: 1035 hPa
Overzicht: Mist
Bewolking: Gedeeltelijk bewolkt
Zicht: 5 km
2020/05/25 23:25 EHRD 252325Z AUTO 30002KT 5000 BR NSC 09/09 Q1035 TEMPO 2000
EHSC - Goeree Le Sea (Platform ter hoogte van Zeeland)
Afstand tot weerstation: WZW 36 km
Update: 26-05-2020 01:25

 Wind van N
Wind: N 9 km/h
Temperatuur: 13°C
Dauwpunt: 11°C
Luchtvochtigheid: 88%
Luchtdruk: 1035 hPa
Zicht: 10 km
2020/05/25 23:25 EHSC 252325Z AUTO 01005KT 9999 ///////// 13/11 Q1035 W13/H5
 
EHAM - A'dam Schiphol
Afstand tot weerstation: ONO 51 km
Update: 26-05-2020 01:25
Helder
Helder
 Wind van OZO
Wind: OZO 2 km/h
Temperatuur: 11°C
Dauwpunt: 11°C
Luchtvochtigheid: 100%
Luchtdruk: 1035 hPa
Overzicht: Helder
Zicht: Meer dan 10 km
2020/05/25 23:25 EHAM 252325Z 11001KT CAVOK 11/11 Q1035 NOSIG
EHSA - Euro Platform (Ter hoogte van Zeeland)
Afstand tot weerstation: W 58 km
Update: 26-05-2020 01:25

 Wind van O
Wind: O 7 km/h
Temperatuur: 13°C
Dauwpunt: 11°C
Luchtvochtigheid: 88%
Luchtdruk: 1035 hPa
Zicht: 10 km
2020/05/25 23:25 EHSA 252325Z AUTO 10004KT 9999 ///////// 13/11 Q1035 W11/H5
 
EHPG - P11-B Sea (Platform ter hoogte van Zuid Holland)
Afstand tot weerstation: NW 60 km
Update: 26-05-2020 01:25
Gedeeltelijk bewolkt
Gedeeltelijk bewolkt
 Wind van ZZO
Wind: ZZO 13 km/h
Temperatuur: 13°C
Dauwpunt: 10°C
Luchtvochtigheid: 82%
Luchtdruk: 1035 hPa
Bewolking: Gedeeltelijk bewolkt
Zicht: 10 km
2020/05/25 23:25 EHPG 252325Z AUTO 15007KT 9999 NSC 13/10 Q1035 RERA
EHWO - Vliegveld Woensdrecht
Afstand tot weerstation: ZZO 65 km
Update: 26-05-2020 01:55
Gedeeltelijk bewolkt
Gedeeltelijk bewolkt
 Wind van ONO
Wind: ONO 4 km/h
Temperatuur: 8°C
Dauwpunt: 7°C
Luchtvochtigheid: 93%
Luchtdruk: 1034 hPa
Bewolking: Gedeeltelijk bewolkt
Zicht: 10 km
Details Bewolking: Gedeeltelijk bewolkt 10973 m
2020/05/25 23:55 EHWO 252355Z AUTO 06002KT 9999 SCT360 08/07 Q1034 B
 
EHGR - Vliegveld Gilze-Rijen
Afstand tot weerstation: ZO 79 km
Update: 26-05-2020 01:55
Helder
Helder
 Wind van calm
Wind: Kalm
Temperatuur: 9°C
Dauwpunt: 9°C
Luchtvochtigheid: 100%
Luchtdruk: 1034 hPa
Bewolking: Helder
Zicht: 10 km
2020/05/25 23:55 EHGR 252355Z AUTO 00000KT 9999 NCD 09/09 Q1034 BLU
EHQE - Hoorn-A Sea (Platform ter hoogte van Noord Holland)
Afstand tot weerstation: N 103 km
Update: 26-05-2020 01:25
Gedeeltelijk bewolkt
Gedeeltelijk bewolkt
 Wind van Z
Wind: Z 7 km/h
Temperatuur: 12°C
Dauwpunt: 11°C
Luchtvochtigheid: 94%
Luchtdruk: 1035 hPa
Bewolking: Gedeeltelijk bewolkt
Zicht: 10 km
2020/05/25 23:25 EHQE 252325Z AUTO 19004KT 9999 NSC 12/11 Q1035
 
EHKD - Marinebasis De Kooy (Den Helder)
Afstand tot weerstation: NNO 114 km
Update: 26-05-2020 01:39
Mist, Gedeeltelijk bewolkt
Mist, Gedeeltelijk bewolkt
 Wind van WNW
Wind: WNW 4 km/h
Temperatuur: 9°C
Dauwpunt: 8°C
Luchtvochtigheid: 94%
Luchtdruk: 1035 hPa
Overzicht: Mist
Bewolking: Gedeeltelijk bewolkt
Zicht: 1 km
Details Bewolking: Gedeeltelijk bewolkt 10668 m
2020/05/25 23:39 EHKD 252339Z AUTO 29002KT 0600 FG SCT350 09/08 Q1035 RED
EHEH - Vliegveld Eindhoven
Afstand tot weerstation: OZO 115 km
Update: 26-05-2020 01:25
Helder
Helder
 Wind van NO
Wind: NO 2 km/h
Temperatuur: 10°C
Dauwpunt: 10°C
Luchtvochtigheid: 100%
Luchtdruk: 1035 hPa
Bewolking: Helder
Zicht: 10 km
2020/05/25 23:25 EHEH 252325Z AUTO 05001KT 9999 NCD 10/10 Q1035 BLU
 
EHVK - Vliegveld Volkel
Afstand tot weerstation: OZO 124 km
Update: 26-05-2020 01:55
Helder
Helder
 Wind van calm
Wind: Kalm
Temperatuur: 9°C
Dauwpunt: 9°C
Luchtvochtigheid: 100%
Luchtdruk: 1034 hPa
Bewolking: Helder
Zicht: 10 km
2020/05/25 23:55 EHVK 252355Z AUTO 00000KT 9999 NCD 09/09 Q1034 BLU
EHDL - Vliegveld Deelen
Afstand tot weerstation: O 128 km
Update: 26-05-2020 01:55
Helder
Helder
 Wind van Variabel
Wind: Variabel 2 km/h
Temperatuur: 8°C
Dauwpunt: 7°C
Luchtvochtigheid: 93%
Luchtdruk: 1034 hPa
Bewolking: Helder
Zicht: 10 km
2020/05/25 23:55 EHDL 252355Z AUTO VRB01KT 9999 NCD 08/07 Q1034 BLU